sensor_id;sensor_type;location;lat;lon;timestamp;P1;durP1;ratioP1;P2;durP2;ratioP2
56720;SDS011;53183;47.412;18.884;2023-03-01T00:01:02;15.30;;;7.82;;
56720;SDS011;53183;47.412;18.884;2023-03-01T00:03:31;12.77;;;6.82;;
56720;SDS011;53183;47.412;18.884;2023-03-01T00:05:59;12.82;;;6.22;;
56720;SDS011;53183;47.412;18.884;2023-03-01T00:08:27;13.85;;;6.90;;
56720;SDS011;53183;47.412;18.884;2023-03-01T00:11:02;14.32;;;6.28;;
56720;SDS011;53183;47.412;18.884;2023-03-01T00:13:31;13.73;;;7.22;;
56720;SDS011;53183;47.412;18.884;2023-03-01T00:15:58;11.98;;;6.80;;
56720;SDS011;53183;47.412;18.884;2023-03-01T00:18:25;11.88;;;6.97;;
56720;SDS011;53183;47.412;18.884;2023-03-01T00:20:53;15.13;;;7.37;;
56720;SDS011;53183;47.412;18.884;2023-03-01T00:23:22;11.70;;;6.15;;
56720;SDS011;53183;47.412;18.884;2023-03-01T00:25:50;13.90;;;6.03;;
56720;SDS011;53183;47.412;18.884;2023-03-01T00:28:17;13.20;;;6.20;;
56720;SDS011;53183;47.412;18.884;2023-03-01T00:30:45;12.40;;;6.95;;
56720;SDS011;53183;47.412;18.884;2023-03-01T00:33:13;12.45;;;7.30;;
56720;SDS011;53183;47.412;18.884;2023-03-01T00:35:40;12.18;;;6.68;;
56720;SDS011;53183;47.412;18.884;2023-03-01T00:38:08;13.77;;;6.65;;
56720;SDS011;53183;47.412;18.884;2023-03-01T00:40:35;11.82;;;6.50;;
56720;SDS011;53183;47.412;18.884;2023-03-01T00:43:03;12.50;;;7.07;;
56720;SDS011;53183;47.412;18.884;2023-03-01T00:45:32;13.60;;;6.25;;
56720;SDS011;53183;47.412;18.884;2023-03-01T00:47:59;11.98;;;6.47;;
56720;SDS011;53183;47.412;18.884;2023-03-01T00:50:27;17.15;;;6.60;;
56720;SDS011;53183;47.412;18.884;2023-03-01T00:52:55;12.85;;;7.00;;
56720;SDS011;53183;47.412;18.884;2023-03-01T00:55:23;12.40;;;6.62;;
56720;SDS011;53183;47.412;18.884;2023-03-01T00:57:50;13.75;;;6.20;;
56720;SDS011;53183;47.412;18.884;2023-03-01T01:00:19;12.35;;;6.60;;
56720;SDS011;53183;47.412;18.884;2023-03-01T01:02:47;12.45;;;6.15;;
56720;SDS011;53183;47.412;18.884;2023-03-01T01:05:14;16.90;;;6.60;;
56720;SDS011;53183;47.412;18.884;2023-03-01T01:07:41;12.98;;;5.85;;
56720;SDS011;53183;47.412;18.884;2023-03-01T01:10:09;11.32;;;6.45;;
56720;SDS011;53183;47.412;18.884;2023-03-01T01:12:45;11.23;;;6.22;;
56720;SDS011;53183;47.412;18.884;2023-03-01T01:15:12;12.65;;;5.95;;
56720;SDS011;53183;47.412;18.884;2023-03-01T01:17:40;12.37;;;5.62;;
56720;SDS011;53183;47.412;18.884;2023-03-01T01:20:08;16.30;;;6.55;;
56720;SDS011;53183;47.412;18.884;2023-03-01T01:22:35;15.18;;;5.62;;
56720;SDS011;53183;47.412;18.884;2023-03-01T01:25:03;12.13;;;6.57;;
56720;SDS011;53183;47.412;18.884;2023-03-01T01:27:30;12.20;;;6.40;;
56720;SDS011;53183;47.412;18.884;2023-03-01T01:29:58;14.48;;;6.45;;
56720;SDS011;53183;47.412;18.884;2023-03-01T01:32:25;12.15;;;6.57;;
56720;SDS011;53183;47.412;18.884;2023-03-01T01:34:53;13.70;;;6.22;;
56720;SDS011;53183;47.412;18.884;2023-03-01T01:37:21;10.60;;;6.57;;
56720;SDS011;53183;47.412;18.884;2023-03-01T01:39:48;13.43;;;6.60;;
56720;SDS011;53183;47.412;18.884;2023-03-01T01:42:16;13.32;;;6.87;;
56720;SDS011;53183;47.412;18.884;2023-03-01T01:44:47;17.20;;;7.03;;
56720;SDS011;53183;47.412;18.884;2023-03-01T01:47:16;10.07;;;5.57;;
56720;SDS011;53183;47.412;18.884;2023-03-01T01:49:49;13.85;;;6.75;;
56720;SDS011;53183;47.412;18.884;2023-03-01T01:52:22;15.43;;;6.28;;
56720;SDS011;53183;47.412;18.884;2023-03-01T01:57:47;14.60;;;6.85;;
56720;SDS011;53183;47.412;18.884;2023-03-01T02:00:20;14.65;;;6.95;;
56720;SDS011;53183;47.412;18.884;2023-03-01T02:02:50;13.00;;;6.90;;
56720;SDS011;53183;47.412;18.884;2023-03-01T02:08:28;12.57;;;6.53;;
56720;SDS011;53183;47.412;18.884;2023-03-01T02:10:57;12.00;;;5.95;;
56720;SDS011;53183;47.412;18.884;2023-03-01T02:13:31;12.37;;;6.17;;
56720;SDS011;53183;47.412;18.884;2023-03-01T02:16:10;10.80;;;5.95;;
56720;SDS011;53183;47.412;18.884;2023-03-01T02:18:40;16.35;;;7.30;;
56720;SDS011;53183;47.412;18.884;2023-03-01T02:23:46;14.15;;;6.75;;
56720;SDS011;53183;47.412;18.884;2023-03-01T02:28:47;15.18;;;7.03;;
56720;SDS011;53183;47.412;18.884;2023-03-01T02:31:17;16.20;;;7.03;;
56720;SDS011;53183;47.412;18.884;2023-03-01T02:34:05;12.32;;;6.57;;
56720;SDS011;53183;47.412;18.884;2023-03-01T02:36:35;13.95;;;6.70;;
56720;SDS011;53183;47.412;18.884;2023-03-01T02:39:06;17.62;;;7.68;;
56720;SDS011;53183;47.412;18.884;2023-03-01T02:41:42;12.82;;;7.25;;
56720;SDS011;53183;47.412;18.884;2023-03-01T02:44:12;12.37;;;6.95;;
56720;SDS011;53183;47.412;18.884;2023-03-01T02:46:43;13.45;;;7.00;;
56720;SDS011;53183;47.412;18.884;2023-03-01T02:49:24;13.68;;;7.50;;
56720;SDS011;53183;47.412;18.884;2023-03-01T02:55:31;17.62;;;7.45;;
56720;SDS011;53183;47.412;18.884;2023-03-01T02:57:41;16.17;;;7.40;;
56720;SDS011;53183;47.412;18.884;2023-03-01T03:00:12;16.45;;;7.53;;
56720;SDS011;53183;47.412;18.884;2023-03-01T03:02:47;15.25;;;7.05;;
56720;SDS011;53183;47.412;18.884;2023-03-01T03:05:18;16.87;;;7.78;;
56720;SDS011;53183;47.412;18.884;2023-03-01T03:07:48;15.20;;;6.90;;
56720;SDS011;53183;47.412;18.884;2023-03-01T03:10:21;11.10;;;6.30;;
56720;SDS011;53183;47.412;18.884;2023-03-01T03:12:58;15.38;;;7.20;;
56720;SDS011;53183;47.412;18.884;2023-03-01T03:15:30;15.18;;;6.15;;
56720;SDS011;53183;47.412;18.884;2023-03-01T03:17:58;15.18;;;7.78;;
56720;SDS011;53183;47.412;18.884;2023-03-01T03:20:26;16.00;;;7.10;;
56720;SDS011;53183;47.412;18.884;2023-03-01T03:22:55;12.98;;;6.97;;
56720;SDS011;53183;47.412;18.884;2023-03-01T03:25:25;16.10;;;7.37;;
56720;SDS011;53183;47.412;18.884;2023-03-01T03:27:54;13.13;;;6.85;;
56720;SDS011;53183;47.412;18.884;2023-03-01T03:30:27;13.57;;;7.07;;
56720;SDS011;53183;47.412;18.884;2023-03-01T03:32:57;14.57;;;6.80;;
56720;SDS011;53183;47.412;18.884;2023-03-01T03:35:30;13.77;;;6.62;;
56720;SDS011;53183;47.412;18.884;2023-03-01T03:38:00;15.10;;;7.37;;
56720;SDS011;53183;47.412;18.884;2023-03-01T03:40:37;18.65;;;7.82;;
56720;SDS011;53183;47.412;18.884;2023-03-01T03:43:16;12.95;;;7.12;;
56720;SDS011;53183;47.412;18.884;2023-03-01T03:45:45;12.10;;;7.30;;
56720;SDS011;53183;47.412;18.884;2023-03-01T03:48:14;14.15;;;7.35;;
56720;SDS011;53183;47.412;18.884;2023-03-01T03:50:46;13.75;;;6.85;;
56720;SDS011;53183;47.412;18.884;2023-03-01T03:53:15;14.45;;;7.28;;
56720;SDS011;53183;47.412;18.884;2023-03-01T03:55:43;13.45;;;7.60;;
56720;SDS011;53183;47.412;18.884;2023-03-01T03:58:11;18.80;;;8.38;;
56720;SDS011;53183;47.412;18.884;2023-03-01T04:00:39;13.60;;;6.82;;
56720;SDS011;53183;47.412;18.884;2023-03-01T04:03:09;15.10;;;7.05;;
56720;SDS011;53183;47.412;18.884;2023-03-01T04:05:38;14.02;;;6.32;;
56720;SDS011;53183;47.412;18.884;2023-03-01T04:08:07;15.27;;;7.50;;
56720;SDS011;53183;47.412;18.884;2023-03-01T04:10:36;14.18;;;6.75;;
56720;SDS011;53183;47.412;18.884;2023-03-01T04:13:05;13.75;;;7.10;;
56720;SDS011;53183;47.412;18.884;2023-03-01T04:15:34;16.80;;;6.82;;
56720;SDS011;53183;47.412;18.884;2023-03-01T04:18:02;14.27;;;6.40;;
56720;SDS011;53183;47.412;18.884;2023-03-01T04:20:31;13.07;;;7.00;;
56720;SDS011;53183;47.412;18.884;2023-03-01T04:23:03;14.63;;;6.25;;
56720;SDS011;53183;47.412;18.884;2023-03-01T04:25:42;12.98;;;6.90;;
56720;SDS011;53183;47.412;18.884;2023-03-01T04:28:12;13.38;;;7.10;;
56720;SDS011;53183;47.412;18.884;2023-03-01T04:30:39;13.98;;;6.68;;
56720;SDS011;53183;47.412;18.884;2023-03-01T04:33:08;17.15;;;6.93;;
56720;SDS011;53183;47.412;18.884;2023-03-01T04:35:36;13.70;;;7.25;;
56720;SDS011;53183;47.412;18.884;2023-03-01T04:38:05;13.62;;;6.22;;
56720;SDS011;53183;47.412;18.884;2023-03-01T04:40:32;15.82;;;6.72;;
56720;SDS011;53183;47.412;18.884;2023-03-01T04:43:00;17.00;;;9.23;;
56720;SDS011;53183;47.412;18.884;2023-03-01T04:45:27;16.33;;;7.97;;
56720;SDS011;53183;47.412;18.884;2023-03-01T04:47:54;13.18;;;6.97;;
56720;SDS011;53183;47.412;18.884;2023-03-01T04:50:24;16.30;;;8.48;;
56720;SDS011;53183;47.412;18.884;2023-03-01T04:52:52;17.12;;;7.45;;
56720;SDS011;53183;47.412;18.884;2023-03-01T04:55:20;15.90;;;8.02;;
56720;SDS011;53183;47.412;18.884;2023-03-01T04:57:47;19.45;;;7.93;;
56720;SDS011;53183;47.412;18.884;2023-03-01T05:00:15;14.05;;;6.82;;
56720;SDS011;53183;47.412;18.884;2023-03-01T05:05:21;13.20;;;7.07;;
56720;SDS011;53183;47.412;18.884;2023-03-01T05:07:56;14.25;;;7.95;;
56720;SDS011;53183;47.412;18.884;2023-03-01T05:10:25;16.55;;;7.25;;
56720;SDS011;53183;47.412;18.884;2023-03-01T05:12:56;16.67;;;7.75;;
56720;SDS011;53183;47.412;18.884;2023-03-01T05:15:24;17.58;;;7.47;;
56720;SDS011;53183;47.412;18.884;2023-03-01T05:17:54;18.12;;;7.62;;
56720;SDS011;53183;47.412;18.884;2023-03-01T05:20:22;15.85;;;7.00;;
56720;SDS011;53183;47.412;18.884;2023-03-01T05:22:50;15.95;;;7.78;;
56720;SDS011;53183;47.412;18.884;2023-03-01T05:25:18;16.35;;;7.37;;
56720;SDS011;53183;47.412;18.884;2023-03-01T05:27:45;25.42;;;7.62;;
56720;SDS011;53183;47.412;18.884;2023-03-01T05:30:12;13.50;;;7.30;;
56720;SDS011;53183;47.412;18.884;2023-03-01T05:32:44;17.33;;;6.87;;
56720;SDS011;53183;47.412;18.884;2023-03-01T05:35:14;14.60;;;7.65;;
56720;SDS011;53183;47.412;18.884;2023-03-01T05:37:43;14.02;;;6.62;;
56720;SDS011;53183;47.412;18.884;2023-03-01T05:40:12;14.65;;;6.87;;
56720;SDS011;53183;47.412;18.884;2023-03-01T05:42:45;15.05;;;7.37;;
56720;SDS011;53183;47.412;18.884;2023-03-01T05:45:18;15.68;;;8.40;;
56720;SDS011;53183;47.412;18.884;2023-03-01T05:47:47;20.17;;;7.10;;
56720;SDS011;53183;47.412;18.884;2023-03-01T05:50:25;17.08;;;6.55;;
56720;SDS011;53183;47.412;18.884;2023-03-01T05:52:58;15.32;;;7.05;;
56720;SDS011;53183;47.412;18.884;2023-03-01T05:55:27;14.80;;;6.60;;
56720;SDS011;53183;47.412;18.884;2023-03-01T05:57:59;13.55;;;7.10;;
56720;SDS011;53183;47.412;18.884;2023-03-01T06:00:31;21.70;;;8.73;;
56720;SDS011;53183;47.412;18.884;2023-03-01T06:02:59;17.80;;;7.68;;
56720;SDS011;53183;47.412;18.884;2023-03-01T06:05:26;18.40;;;6.68;;
56720;SDS011;53183;47.412;18.884;2023-03-01T06:07:54;13.13;;;7.10;;
56720;SDS011;53183;47.412;18.884;2023-03-01T06:10:22;14.73;;;7.03;;
56720;SDS011;53183;47.412;18.884;2023-03-01T06:12:49;14.18;;;7.62;;
56720;SDS011;53183;47.412;18.884;2023-03-01T06:15:17;15.55;;;7.47;;
56720;SDS011;53183;47.412;18.884;2023-03-01T06:17:45;11.15;;;6.93;;
56720;SDS011;53183;47.412;18.884;2023-03-01T06:20:19;15.60;;;7.70;;
56720;SDS011;53183;47.412;18.884;2023-03-01T06:22:48;14.50;;;6.72;;
56720;SDS011;53183;47.412;18.884;2023-03-01T06:25:17;19.48;;;8.50;;
56720;SDS011;53183;47.412;18.884;2023-03-01T06:27:46;14.35;;;7.45;;
56720;SDS011;53183;47.412;18.884;2023-03-01T06:30:16;12.77;;;6.82;;
56720;SDS011;53183;47.412;18.884;2023-03-01T06:32:44;15.35;;;7.78;;
56720;SDS011;53183;47.412;18.884;2023-03-01T06:35:14;13.82;;;7.50;;
56720;SDS011;53183;47.412;18.884;2023-03-01T06:37:46;18.05;;;7.12;;
56720;SDS011;53183;47.412;18.884;2023-03-01T06:40:14;12.80;;;7.03;;
56720;SDS011;53183;47.412;18.884;2023-03-01T06:42:43;13.90;;;7.78;;
56720;SDS011;53183;47.412;18.884;2023-03-01T06:45:15;17.80;;;8.93;;
56720;SDS011;53183;47.412;18.884;2023-03-01T06:47:42;18.80;;;7.55;;
56720;SDS011;53183;47.412;18.884;2023-03-01T06:50:09;15.32;;;7.03;;
56720;SDS011;53183;47.412;18.884;2023-03-01T06:52:37;14.48;;;7.50;;
56720;SDS011;53183;47.412;18.884;2023-03-01T06:55:05;14.52;;;7.20;;
56720;SDS011;53183;47.412;18.884;2023-03-01T06:57:33;15.93;;;6.82;;
56720;SDS011;53183;47.412;18.884;2023-03-01T07:00:00;20.48;;;7.10;;
56720;SDS011;53183;47.412;18.884;2023-03-01T07:02:27;13.62;;;7.50;;
56720;SDS011;53183;47.412;18.884;2023-03-01T07:04:54;14.57;;;6.82;;
56720;SDS011;53183;47.412;18.884;2023-03-01T07:07:22;13.10;;;6.68;;
56720;SDS011;53183;47.412;18.884;2023-03-01T07:09:49;15.23;;;7.30;;
56720;SDS011;53183;47.412;18.884;2023-03-01T07:12:16;16.37;;;7.90;;
56720;SDS011;53183;47.412;18.884;2023-03-01T07:14:44;16.10;;;8.00;;
56720;SDS011;53183;47.412;18.884;2023-03-01T07:17:11;27.52;;;8.15;;
56720;SDS011;53183;47.412;18.884;2023-03-01T07:19:38;14.87;;;7.65;;
56720;SDS011;53183;47.412;18.884;2023-03-01T07:22:05;17.70;;;8.35;;
56720;SDS011;53183;47.412;18.884;2023-03-01T07:24:34;16.83;;;7.45;;
56720;SDS011;53183;47.412;18.884;2023-03-01T07:27:01;15.25;;;8.25;;
56720;SDS011;53183;47.412;18.884;2023-03-01T07:29:29;18.42;;;8.57;;
56720;SDS011;53183;47.412;18.884;2023-03-01T07:31:56;14.75;;;7.32;;
56720;SDS011;53183;47.412;18.884;2023-03-01T07:34:23;15.95;;;8.23;;
56720;SDS011;53183;47.412;18.884;2023-03-01T07:36:51;12.98;;;7.05;;
56720;SDS011;53183;47.412;18.884;2023-03-01T07:39:19;16.65;;;8.88;;
56720;SDS011;53183;47.412;18.884;2023-03-01T07:41:46;23.30;;;8.82;;
56720;SDS011;53183;47.412;18.884;2023-03-01T07:44:13;15.55;;;8.43;;
56720;SDS011;53183;47.412;18.884;2023-03-01T07:46:41;15.35;;;8.20;;
56720;SDS011;53183;47.412;18.884;2023-03-01T07:49:08;13.43;;;8.07;;
56720;SDS011;53183;47.412;18.884;2023-03-01T07:51:36;15.60;;;8.02;;
56720;SDS011;53183;47.412;18.884;2023-03-01T07:54:03;16.12;;;7.93;;
56720;SDS011;53183;47.412;18.884;2023-03-01T07:56:30;17.00;;;7.82;;
56720;SDS011;53183;47.412;18.884;2023-03-01T07:58:58;15.20;;;6.45;;
56720;SDS011;53183;47.412;18.884;2023-03-01T08:01:26;15.02;;;7.95;;
56720;SDS011;53183;47.412;18.884;2023-03-01T08:03:53;12.60;;;6.32;;
56720;SDS011;53183;47.412;18.884;2023-03-01T08:06:20;20.42;;;8.23;;
56720;SDS011;53183;47.412;18.884;2023-03-01T08:08:47;15.30;;;7.43;;
56720;SDS011;53183;47.412;18.884;2023-03-01T08:11:15;16.02;;;8.32;;
56720;SDS011;53183;47.412;18.884;2023-03-01T08:13:43;24.08;;;8.30;;
56720;SDS011;53183;47.412;18.884;2023-03-01T08:16:11;16.40;;;7.78;;
56720;SDS011;53183;47.412;18.884;2023-03-01T08:18:41;14.32;;;7.55;;
56720;SDS011;53183;47.412;18.884;2023-03-01T08:21:10;15.32;;;7.70;;
56720;SDS011;53183;47.412;18.884;2023-03-01T08:23:42;15.32;;;8.00;;
56720;SDS011;53183;47.412;18.884;2023-03-01T08:26:11;14.10;;;8.15;;
56720;SDS011;53183;47.412;18.884;2023-03-01T08:28:40;14.25;;;7.12;;
56720;SDS011;53183;47.412;18.884;2023-03-01T08:31:21;15.85;;;6.72;;
56720;SDS011;53183;47.412;18.884;2023-03-01T08:33:51;15.63;;;7.97;;
56720;SDS011;53183;47.412;18.884;2023-03-01T08:36:24;16.17;;;7.68;;
56720;SDS011;53183;47.412;18.884;2023-03-01T08:38:56;13.93;;;7.60;;
56720;SDS011;53183;47.412;18.884;2023-03-01T08:41:24;17.10;;;8.35;;
56720;SDS011;53183;47.412;18.884;2023-03-01T08:43:51;13.25;;;6.72;;
56720;SDS011;53183;47.412;18.884;2023-03-01T08:46:19;14.45;;;7.15;;
56720;SDS011;53183;47.412;18.884;2023-03-01T08:48:46;14.93;;;7.85;;
56720;SDS011;53183;47.412;18.884;2023-03-01T08:51:15;14.30;;;6.97;;
56720;SDS011;53183;47.412;18.884;2023-03-01T08:53:44;14.63;;;6.93;;
56720;SDS011;53183;47.412;18.884;2023-03-01T08:56:12;16.75;;;8.40;;
56720;SDS011;53183;47.412;18.884;2023-03-01T08:58:39;19.12;;;7.78;;
56720;SDS011;53183;47.412;18.884;2023-03-01T09:01:10;15.88;;;8.52;;
56720;SDS011;53183;47.412;18.884;2023-03-01T09:03:38;17.27;;;7.82;;
56720;SDS011;53183;47.412;18.884;2023-03-01T09:06:06;12.65;;;6.50;;
56720;SDS011;53183;47.412;18.884;2023-03-01T09:08:35;13.60;;;7.37;;
56720;SDS011;53183;47.412;18.884;2023-03-01T09:11:07;15.32;;;7.50;;
56720;SDS011;53183;47.412;18.884;2023-03-01T09:13:40;12.60;;;6.85;;
56720;SDS011;53183;47.412;18.884;2023-03-01T09:16:10;22.67;;;7.32;;
56720;SDS011;53183;47.412;18.884;2023-03-01T09:18:39;13.70;;;6.95;;
56720;SDS011;53183;47.412;18.884;2023-03-01T09:21:12;14.30;;;6.70;;
56720;SDS011;53183;47.412;18.884;2023-03-01T09:23:42;10.65;;;6.50;;
56720;SDS011;53183;47.412;18.884;2023-03-01T09:26:13;22.10;;;7.22;;
56720;SDS011;53183;47.412;18.884;2023-03-01T09:28:50;18.10;;;6.70;;
56720;SDS011;53183;47.412;18.884;2023-03-01T09:31:19;13.68;;;7.43;;
56720;SDS011;53183;47.412;18.884;2023-03-01T09:33:48;12.05;;;6.70;;
56720;SDS011;53183;47.412;18.884;2023-03-01T09:36:18;16.15;;;7.53;;
56720;SDS011;53183;47.412;18.884;2023-03-01T09:38:47;13.32;;;7.80;;
56720;SDS011;53183;47.412;18.884;2023-03-01T09:43:43;16.05;;;8.02;;
56720;SDS011;53183;47.412;18.884;2023-03-01T09:46:13;17.12;;;7.47;;
56720;SDS011;53183;47.412;18.884;2023-03-01T09:48:48;12.57;;;7.25;;
56720;SDS011;53183;47.412;18.884;2023-03-01T09:51:32;16.98;;;6.87;;
56720;SDS011;53183;47.412;18.884;2023-03-01T09:54:04;15.68;;;7.78;;
56720;SDS011;53183;47.412;18.884;2023-03-01T10:02:21;13.25;;;7.37;;
56720;SDS011;53183;47.412;18.884;2023-03-01T10:04:48;18.95;;;8.55;;
56720;SDS011;53183;47.412;18.884;2023-03-01T10:08:24;14.30;;;8.07;;
56720;SDS011;53183;47.412;18.884;2023-03-01T10:10:38;13.10;;;7.68;;
56720;SDS011;53183;47.412;18.884;2023-03-01T10:13:34;14.90;;;8.05;;
56720;SDS011;53183;47.412;18.884;2023-03-01T10:18:40;14.23;;;7.93;;
56720;SDS011;53183;47.412;18.884;2023-03-01T10:21:12;15.32;;;8.45;;
56720;SDS011;53183;47.412;18.884;2023-03-01T10:23:43;15.68;;;7.18;;
56720;SDS011;53183;47.412;18.884;2023-03-01T10:31:24;16.83;;;7.53;;
56720;SDS011;53183;47.412;18.884;2023-03-01T10:33:56;16.05;;;7.95;;
56720;SDS011;53183;47.412;18.884;2023-03-01T10:36:24;16.35;;;7.37;;
56720;SDS011;53183;47.412;18.884;2023-03-01T10:38:53;15.45;;;7.65;;
56720;SDS011;53183;47.412;18.884;2023-03-01T10:41:24;19.05;;;7.97;;
56720;SDS011;53183;47.412;18.884;2023-03-01T10:43:54;13.73;;;7.87;;
56720;SDS011;53183;47.412;18.884;2023-03-01T10:46:24;16.50;;;8.52;;
56720;SDS011;53183;47.412;18.884;2023-03-01T10:51:32;18.02;;;9.10;;
56720;SDS011;53183;47.412;18.884;2023-03-01T10:53:59;16.70;;;8.18;;
56720;SDS011;53183;47.412;18.884;2023-03-01T10:56:29;17.48;;;7.65;;
56720;SDS011;53183;47.412;18.884;2023-03-01T11:02:15;19.58;;;7.68;;
56720;SDS011;53183;47.412;18.884;2023-03-01T11:05:13;15.88;;;8.02;;
56720;SDS011;53183;47.412;18.884;2023-03-01T11:07:47;15.27;;;8.25;;
56720;SDS011;53183;47.412;18.884;2023-03-01T11:10:30;16.25;;;8.45;;
56720;SDS011;53183;47.412;18.884;2023-03-01T11:13:07;17.20;;;8.70;;
56720;SDS011;53183;47.412;18.884;2023-03-01T11:15:41;14.77;;;7.47;;
56720;SDS011;53183;47.412;18.884;2023-03-01T11:18:22;11.05;;;6.43;;
56720;SDS011;53183;47.412;18.884;2023-03-01T11:21:02;16.02;;;7.37;;
56720;SDS011;53183;47.412;18.884;2023-03-01T11:23:31;20.48;;;9.52;;
56720;SDS011;53183;47.412;18.884;2023-03-01T11:26:00;23.08;;;9.63;;
56720;SDS011;53183;47.412;18.884;2023-03-01T11:28:33;18.60;;;8.30;;
56720;SDS011;53183;47.412;18.884;2023-03-01T11:31:05;15.93;;;8.18;;
56720;SDS011;53183;47.412;18.884;2023-03-01T11:38:51;14.00;;;7.80;;
56720;SDS011;53183;47.412;18.884;2023-03-01T11:41:21;14.48;;;7.65;;
56720;SDS011;53183;47.412;18.884;2023-03-01T11:49:36;18.17;;;8.23;;
56720;SDS011;53183;47.412;18.884;2023-03-01T12:12:22;18.15;;;8.13;;
56720;SDS011;53183;47.412;18.884;2023-03-01T12:15:49;15.93;;;7.32;;
56720;SDS011;53183;47.412;18.884;2023-03-01T12:21:11;13.27;;;6.78;;
56720;SDS011;53183;47.412;18.884;2023-03-01T12:29:34;16.35;;;7.43;;
56720;SDS011;53183;47.412;18.884;2023-03-01T12:32:47;26.58;;;8.93;;
56720;SDS011;53183;47.412;18.884;2023-03-01T12:38:42;23.85;;;7.87;;
56720;SDS011;53183;47.412;18.884;2023-03-01T12:49:13;12.43;;;7.45;;
56720;SDS011;53183;47.412;18.884;2023-03-01T12:51:49;12.77;;;7.12;;
56720;SDS011;53183;47.412;18.884;2023-03-01T12:54:27;17.83;;;7.65;;
56720;SDS011;53183;47.412;18.884;2023-03-01T12:59:38;19.30;;;9.68;;
56720;SDS011;53183;47.412;18.884;2023-03-01T13:02:25;9.88;;;6.07;;
56720;SDS011;53183;47.412;18.884;2023-03-01T13:13:14;16.52;;;8.65;;
56720;SDS011;53183;47.412;18.884;2023-03-01T13:15:47;12.77;;;6.07;;
56720;SDS011;53183;47.412;18.884;2023-03-01T13:26:06;12.32;;;5.03;;
56720;SDS011;53183;47.412;18.884;2023-03-01T13:31:09;8.50;;;4.32;;
56720;SDS011;53183;47.412;18.884;2023-03-01T13:34:03;10.38;;;4.50;;
56720;SDS011;53183;47.412;18.884;2023-03-01T13:39:04;9.77;;;5.93;;
56720;SDS011;53183;47.412;18.884;2023-03-01T13:41:53;11.68;;;5.45;;
56720;SDS011;53183;47.412;18.884;2023-03-01T13:47:24;11.12;;;5.35;;
56720;SDS011;53183;47.412;18.884;2023-03-01T13:49:55;34.85;;;6.07;;
56720;SDS011;53183;47.412;18.884;2023-03-01T13:52:37;11.00;;;6.07;;
56720;SDS011;53183;47.412;18.884;2023-03-01T13:57:49;8.85;;;5.55;;
56720;SDS011;53183;47.412;18.884;2023-03-01T14:03:26;11.85;;;5.15;;
56720;SDS011;53183;47.412;18.884;2023-03-01T14:08:42;12.80;;;5.68;;
56720;SDS011;53183;47.412;18.884;2023-03-01T14:13:51;18.15;;;5.43;;
56720;SDS011;53183;47.412;18.884;2023-03-01T14:19:32;13.62;;;6.25;;
56720;SDS011;53183;47.412;18.884;2023-03-01T14:22:16;10.48;;;5.95;;
56720;SDS011;53183;47.412;18.884;2023-03-01T14:24:56;12.23;;;6.20;;
56720;SDS011;53183;47.412;18.884;2023-03-01T14:27:33;9.95;;;5.57;;
56720;SDS011;53183;47.412;18.884;2023-03-01T14:30:17;10.32;;;4.90;;
56720;SDS011;53183;47.412;18.884;2023-03-01T14:32:55;14.02;;;6.18;;
56720;SDS011;53183;47.412;18.884;2023-03-01T14:35:29;12.93;;;5.30;;
56720;SDS011;53183;47.412;18.884;2023-03-01T14:38:01;12.45;;;4.87;;
56720;SDS011;53183;47.412;18.884;2023-03-01T14:43:01;11.23;;;6.20;;
56720;SDS011;53183;47.412;18.884;2023-03-01T14:45:35;9.40;;;4.82;;
56720;SDS011;53183;47.412;18.884;2023-03-01T14:48:03;9.73;;;5.28;;
56720;SDS011;53183;47.412;18.884;2023-03-01T14:50:33;17.58;;;5.80;;
56720;SDS011;53183;47.412;18.884;2023-03-01T14:53:03;16.90;;;4.45;;
56720;SDS011;53183;47.412;18.884;2023-03-01T14:55:35;10.13;;;5.53;;
56720;SDS011;53183;47.412;18.884;2023-03-01T14:58:08;9.02;;;4.95;;
56720;SDS011;53183;47.412;18.884;2023-03-01T15:00:39;12.13;;;3.73;;
56720;SDS011;53183;47.412;18.884;2023-03-01T15:03:33;10.95;;;4.90;;
56720;SDS011;53183;47.412;18.884;2023-03-01T15:06:06;8.95;;;4.22;;
56720;SDS011;53183;47.412;18.884;2023-03-01T15:08:35;10.77;;;4.80;;
56720;SDS011;53183;47.412;18.884;2023-03-01T15:13:41;17.73;;;6.90;;
56720;SDS011;53183;47.412;18.884;2023-03-01T15:19:05;12.80;;;4.53;;
56720;SDS011;53183;47.412;18.884;2023-03-01T15:21:34;7.65;;;4.53;;
56720;SDS011;53183;47.412;18.884;2023-03-01T15:29:22;10.70;;;4.53;;
56720;SDS011;53183;47.412;18.884;2023-03-01T15:31:58;10.43;;;5.53;;
56720;SDS011;53183;47.412;18.884;2023-03-01T15:34:37;13.00;;;6.20;;
56720;SDS011;53183;47.412;18.884;2023-03-01T15:37:06;9.63;;;4.70;;
56720;SDS011;53183;47.412;18.884;2023-03-01T15:39:55;6.65;;;4.40;;
56720;SDS011;53183;47.412;18.884;2023-03-01T15:42:36;16.25;;;5.07;;
56720;SDS011;53183;47.412;18.884;2023-03-01T15:45:23;9.55;;;4.05;;
56720;SDS011;53183;47.412;18.884;2023-03-01T15:50:29;10.68;;;4.75;;
56720;SDS011;53183;47.412;18.884;2023-03-01T15:53:01;14.52;;;8.52;;
56720;SDS011;53183;47.412;18.884;2023-03-01T15:55:33;8.77;;;4.95;;
56720;SDS011;53183;47.412;18.884;2023-03-01T15:58:05;9.63;;;4.78;;
56720;SDS011;53183;47.412;18.884;2023-03-01T16:00:39;15.68;;;6.93;;
56720;SDS011;53183;47.412;18.884;2023-03-01T16:03:24;12.10;;;5.43;;
56720;SDS011;53183;47.412;18.884;2023-03-01T16:05:51;11.05;;;4.85;;
56720;SDS011;53183;47.412;18.884;2023-03-01T16:08:18;15.73;;;5.12;;
56720;SDS011;53183;47.412;18.884;2023-03-01T16:10:46;15.82;;;5.68;;
56720;SDS011;53183;47.412;18.884;2023-03-01T16:13:14;12.70;;;5.32;;
56720;SDS011;53183;47.412;18.884;2023-03-01T16:15:42;11.88;;;4.68;;
56720;SDS011;53183;47.412;18.884;2023-03-01T16:18:10;14.90;;;5.20;;
56720;SDS011;53183;47.412;18.884;2023-03-01T16:20:38;10.38;;;4.85;;
56720;SDS011;53183;47.412;18.884;2023-03-01T16:23:07;16.17;;;6.28;;
56720;SDS011;53183;47.412;18.884;2023-03-01T16:25:35;15.75;;;5.15;;
56720;SDS011;53183;47.412;18.884;2023-03-01T16:28:03;10.85;;;4.78;;
56720;SDS011;53183;47.412;18.884;2023-03-01T16:30:36;12.48;;;4.45;;
56720;SDS011;53183;47.412;18.884;2023-03-01T16:33:06;14.60;;;5.07;;
56720;SDS011;53183;47.412;18.884;2023-03-01T16:35:54;21.33;;;6.50;;
56720;SDS011;53183;47.412;18.884;2023-03-01T16:38:21;15.90;;;6.28;;
56720;SDS011;53183;47.412;18.884;2023-03-01T16:40:49;15.05;;;5.70;;
56720;SDS011;53183;47.412;18.884;2023-03-01T16:43:18;15.77;;;6.22;;
56720;SDS011;53183;47.412;18.884;2023-03-01T16:45:45;14.77;;;6.53;;
56720;SDS011;53183;47.412;18.884;2023-03-01T16:48:13;16.35;;;6.87;;
56720;SDS011;53183;47.412;18.884;2023-03-01T16:50:40;14.25;;;6.62;;
56720;SDS011;53183;47.412;18.884;2023-03-01T16:53:07;22.27;;;7.03;;
56720;SDS011;53183;47.412;18.884;2023-03-01T16:55:35;21.95;;;7.37;;
56720;SDS011;53183;47.412;18.884;2023-03-01T16:58:02;16.83;;;8.48;;
56720;SDS011;53183;47.412;18.884;2023-03-01T17:00:31;27.10;;;8.80;;
56720;SDS011;53183;47.412;18.884;2023-03-01T17:02:58;28.27;;;10.32;;
56720;SDS011;53183;47.412;18.884;2023-03-01T17:05:25;41.95;;;12.25;;
56720;SDS011;53183;47.412;18.884;2023-03-01T17:07:52;30.00;;;10.95;;
56720;SDS011;53183;47.412;18.884;2023-03-01T17:10:22;30.30;;;10.60;;